Time;durP1;ratioP1;P1;durP2;ratioP2;P2;SDS_P1;SDS_P2;PMS_P1;PMS_P2;Temp;Humidity;BMP_temperature;BMP_pressure;BME280_temperature;BME280_humidity;BME280_pressure;Samples;Min_cycle;Max_cycle;Signal;HPM_P1;HPM_P2
2022/12/07 00:01:45;;;;;;;89.93;45.17;;;102.80;2227.20;;;;;;5006622;28;20775;-57
2022/12/07 00:04:13;;;;;;;90.45;42.55;;;102.80;2227.20;;;;;;5007026;28;20021;-55
2022/12/07 00:06:44;;;;;;;184.43;42.72;;;102.60;2227.20;;;;;;5006245;28;20029;-57
2022/12/07 00:09:11;;;;;;;231.60;38.72;;;;;;;;;;5006412;28;20670;-55
2022/12/07 00:11:37;;;;;;;253.48;39.28;;;;;;;;;;5006714;28;20028;-55
2022/12/07 00:14:06;;;;;;;193.13;36.28;;;102.40;2227.20;;;;;;5012317;28;20028;-57
2022/12/07 00:16:33;;;;;;;324.15;44.58;;;;;;;;;;5025752;28;20087;-54
2022/12/07 00:18:59;;;;;;;364.65;47.92;;;;;;;;;;5025729;28;20651;-55
2022/12/07 00:21:29;;;;;;;255.90;45.50;;;;;;;;;;5025911;28;20073;-55
2022/12/07 00:23:56;;;;;;;229.05;42.55;;;;;;;;;;5025542;28;20116;-54
2022/12/07 00:26:25;;;;;;;310.42;51.70;;;;;;;;;;5026286;28;20032;-54
2022/12/07 00:28:52;;;;;;;166.93;43.95;;;;;;;;;;5025272;28;20659;-56
2022/12/07 00:31:19;;;;;;;135.75;42.45;;;;;;;;;;5026108;28;20017;-53
2022/12/07 00:33:46;;;;;;;162.68;39.25;;;;;;;;;;5024896;28;20108;-56
2022/12/07 00:36:14;;;;;;;178.93;38.20;;;;;;;;;;5025323;28;20013;-55
2022/12/07 00:38:40;;;;;;;119.95;33.58;;;;;;;;;;5025292;28;20126;-55
2022/12/07 00:41:13;;;;;;;84.65;29.20;;;;;;;;;;5025065;28;20048;-55
2022/12/07 00:43:40;;;;;;;76.53;26.48;;;;;;;;;;5025610;28;20160;-55
2022/12/07 00:46:06;;;;;;;79.70;28.85;;;;;;;;;;5025121;28;20051;-56
2022/12/07 00:48:32;;;;;;;53.70;24.20;;;;;;;;;;5025140;28;20041;-57
2022/12/07 00:50:58;;;;;;;55.58;27.05;;;;;;;;;;5024011;28;20029;-55
2022/12/07 00:53:24;;;;;;;45.45;24.55;;;;;;;;;;5024807;28;20096;-55
2022/12/07 00:55:52;;;;;;;43.50;24.30;;;128.70;2252.80;;;;;;5024802;28;20047;-55
2022/12/07 00:58:18;;;;;;;42.15;23.63;;;103.10;2227.20;;;;;;5024835;28;20679;-56
2022/12/07 01:00:43;;;;;;;49.53;27.38;;;103.20;2227.20;;;;;;5024172;28;20028;-55
2022/12/07 01:03:12;;;;;;;53.83;30.85;;;128.60;2252.80;;;;;;5024589;28;20016;-55
2022/12/07 01:05:38;;;;;;;53.00;28.85;;;102.90;2227.20;;;;;;5025111;28;20090;-57
2022/12/07 01:08:04;;;;;;;52.42;28.90;;;102.90;2227.20;;;;;;5024891;28;20606;-56
2022/12/07 01:10:31;;;;;;;60.55;30.48;;;102.90;2227.20;;;;;;5024429;28;20634;-56
2022/12/07 01:12:57;;;;;;;59.70;30.35;;;102.80;2227.20;;;;;;5024584;28;20033;-56
2022/12/07 01:15:24;;;;;;;61.88;29.05;;;102.90;2227.20;;;;;;5024604;28;20110;-55
2022/12/07 01:17:50;;;;;;;52.67;28.42;;;102.80;1971.20;;;;;;5024157;28;20028;-54
2022/12/07 01:20:16;;;;;;;81.80;34.60;;;102.70;2227.20;;;;;;5024936;28;20028;-54
2022/12/07 01:22:43;;;;;;;60.25;30.25;;;102.70;2227.20;;;;;;5025233;28;20021;-56
2022/12/07 01:25:10;;;;;;;49.75;26.85;;;102.60;2227.20;;;;;;5025015;28;20042;-55
2022/12/07 01:27:37;;;;;;;44.22;25.60;;;;;;;;;;5023413;28;20283;-55
2022/12/07 01:30:05;;;;;;;43.55;24.90;;;102.70;2227.20;;;;;;5024117;28;20032;-56
2022/12/07 01:32:31;;;;;;;42.22;23.48;;;102.70;2227.20;;;;;;5024312;28;20029;-55
2022/12/07 01:34:57;;;;;;;43.47;23.73;;;102.90;2227.20;;;;;;5024789;28;20098;-56
2022/12/07 01:37:23;;;;;;;43.42;23.63;;;128.70;2252.80;;;;;;5024057;28;20679;-56
2022/12/07 01:39:49;;;;;;;41.88;22.83;;;103.20;2227.20;;;;;;5024275;28;20056;-55
2022/12/07 01:42:15;;;;;;;38.53;22.58;;;103.30;2227.20;;;;;;5023874;28;20032;-55
2022/12/07 01:45:20;;;;;;;51.42;26.38;;;103.20;2227.20;;;;;;5023524;28;20021;-56
2022/12/07 01:47:52;;;;;;;112.60;47.28;;;103.30;1868.80;;;;;;5000946;28;21117;-56
2022/12/07 01:50:19;;;;;;;115.10;50.40;;;128.10;2252.80;;;;;;5000810;28;20049;-55
2022/12/07 01:52:49;;;;;;;85.97;40.00;;;128.10;2252.80;;;;;;5001020;28;20029;-56
2022/12/07 01:55:16;;;;;;;74.47;37.22;;;103.20;2227.20;;;;;;4990618;28;20340;-55
2022/12/07 01:57:47;;;;;;;61.92;30.45;;;128.00;2252.80;;;;;;5000838;28;20037;-56
2022/12/07 02:00:13;;;;;;;64.50;32.50;;;128.20;2252.80;;;;;;4984516;28;20657;-56
2022/12/07 02:03:15;;;;;;;82.15;39.97;;;128.40;2252.80;;;;;;5000653;28;20195;-55
2022/12/07 02:05:42;;;;;;;84.03;40.92;;;128.60;2252.80;;;;;;4961175;28;20034;-56
2022/12/07 02:08:09;;;;;;;48.33;27.45;;;128.50;2252.80;;;;;;4960901;28;20065;-57
2022/12/07 02:10:35;;;;;;;43.33;24.80;;;128.40;2252.80;;;;;;4961560;28;20620;-56
2022/12/07 02:13:10;;;;;;;42.40;23.92;;;128.30;2252.80;;;;;;4954819;28;20127;-56
2022/12/07 02:16:00;;;;;;;39.97;23.88;;;128.30;2252.80;;;;;;4943183;28;20117;-56
2022/12/07 02:18:53;;;;;;;37.00;21.85;;;128.40;2252.80;;;;;;4942119;28;20038;-56
2022/12/07 02:21:50;;;;;;;35.35;21.17;;;128.50;2252.80;;;;;;4955698;28;20468;-56
2022/12/07 02:24:50;;;;;;;36.65;22.33;;;128.60;2252.80;;;;;;4969875;28;20029;-56
2022/12/07 02:27:16;;;;;;;38.15;22.77;;;128.80;2252.80;;;;;;4999238;28;20033;-55
2022/12/07 02:30:14;;;;;;;41.67;24.17;;;128.70;2252.80;;;;;;5000064;28;20641;-55
2022/12/07 02:32:45;;;;;;;40.20;22.73;;;128.60;2252.80;;;;;;4960603;28;20105;-57
2022/12/07 02:35:18;;;;;;;38.20;23.30;;;128.70;2252.80;;;;;;4947119;28;20034;-55
2022/12/07 02:38:08;;;;;;;37.00;22.58;;;128.70;2252.80;;;;;;4942163;28;20115;-56
2022/12/07 02:40:48;;;;;;;34.67;21.75;;;128.60;2252.80;;;;;;4945933;28;20079;-56
2022/12/07 02:43:23;;;;;;;39.10;22.70;;;128.60;2252.80;;;;;;4984532;28;20057;-54
2022/12/07 02:45:51;;;;;;;42.40;24.60;;;128.70;2252.80;;;;;;4984325;28;20718;-54
2022/12/07 02:48:18;;;;;;;44.63;23.20;;;128.40;2252.80;;;;;;4984684;28;20107;-56
2022/12/07 02:50:49;;;;;;;135.77;55.65;;;128.40;2252.80;;;;;;4984644;28;20641;-56
2022/12/07 02:53:30;;;;;;;187.25;102.75;;;128.40;2252.80;;;;;;4984389;28;20060;-56
2022/12/07 02:55:56;;;;;;;161.90;75.82;;;128.40;2252.80;;;;;;4984284;28;20049;-56
2022/12/07 02:58:46;;;;;;;60.38;31.50;;;128.40;2252.80;;;;;;4984516;28;20587;-56
2022/12/07 03:01:27;;;;;;;49.92;27.98;;;128.50;2252.80;;;;;;4984589;28;20542;-56
2022/12/07 03:04:10;;;;;;;67.60;34.97;;;128.50;2252.80;;;;;;4983957;28;20022;-56
2022/12/07 03:06:43;;;;;;;74.97;39.05;;;128.70;2252.80;;;;;;4984511;28;20696;-56
2022/12/07 03:09:35;;;;;;;67.53;36.28;;;153.60;2252.80;;;;;;4998141;28;20635;-55
2022/12/07 03:12:09;;;;;;;61.95;31.80;;;153.70;2252.80;;;;;;5026994;28;20055;-56
2022/12/07 03:14:41;;;;;;;49.90;27.95;;;153.60;2252.80;;;;;;5026701;28;20025;-55
2022/12/07 03:17:19;;;;;;;46.08;27.85;;;153.70;2252.80;;;;;;5026871;28;20029;-56
2022/12/07 03:19:46;;;;;;;35.85;21.80;;;154.00;2252.80;;;;;;5026793;28;20632;-56
2022/12/07 03:22:13;;;;;;;39.75;21.10;;;179.40;2252.80;;;;;;5027113;28;20020;-56
2022/12/07 03:24:44;;;;;;;41.20;23.15;;;154.00;2252.80;;;;;;5026462;28;20017;-56
2022/12/07 03:27:32;;;;;;;40.78;23.08;;;154.10;2252.80;;;;;;5027107;28;20032;-56
2022/12/07 03:30:09;;;;;;;39.67;21.23;;;154.10;2252.80;;;;;;5026941;28;20021;-57
2022/12/07 03:33:10;;;;;;;34.50;20.25;;;154.20;2252.80;;;;;;5026498;28;20098;-58
2022/12/07 03:35:47;;;;;;;34.00;19.98;;;154.10;2252.80;;;;;;5026409;28;20647;-59
2022/12/07 03:38:37;;;;;;;37.60;22.10;;;154.20;2252.80;;;;;;5026531;28;20045;-56
2022/12/07 03:41:06;;;;;;;31.08;19.42;;;153.70;2252.80;;;;;;5002883;28;20040;-58
2022/12/07 03:43:32;;;;;;;31.27;18.27;;;154.10;2252.80;;;;;;5003356;28;20049;-56
2022/12/07 03:46:25;;;;;;;32.75;19.67;;;154.00;2252.80;;;;;;5003383;28;20034;-57
2022/12/07 03:49:00;;;;;;;39.10;23.90;;;154.00;2252.80;;;;;;5002496;28;20180;-57
2022/12/07 03:51:33;;;;;;;33.20;20.08;;;154.00;2252.80;;;;;;5001852;28;20045;-55
2022/12/07 03:54:18;;;;;;;32.30;19.65;;;154.00;2252.80;;;;;;5003083;28;20092;-56
2022/12/07 03:56:45;;;;;;;35.33;20.70;;;153.90;2252.80;;;;;;5003140;28;20104;-55
2022/12/07 03:59:14;;;;;;;34.72;20.85;;;153.70;2252.80;;;;;;5002777;28;20099;-55
2022/12/07 04:01:42;;;;;;;75.65;33.40;;;153.60;2252.80;;;;;;5002663;28;20138;-56
2022/12/07 04:04:08;;;;;;;46.67;25.58;;;128.90;2252.80;;;;;;5002702;28;20618;-55
2022/12/07 04:06:34;;;;;;;57.38;28.20;;;128.80;2252.80;;;;;;5003005;28;20033;-55
2022/12/07 04:08:59;;;;;;;49.22;26.58;;;128.80;2252.80;;;;;;5002811;28;20103;-56
2022/12/07 04:11:25;;;;;;;40.35;22.08;;;128.80;2252.80;;;;;;5002958;28;20742;-55
2022/12/07 04:16:35;;;;;;;31.42;18.38;;;128.90;2252.80;;;;;;5003079;28;20091;-55
2022/12/07 04:19:00;;;;;;;35.80;19.50;;;128.90;2252.80;;;;;;5023042;28;20060;-54
2022/12/07 04:21:26;;;;;;;34.58;19.40;;;128.80;2252.80;;;;;;5027298;28;20013;-55
2022/12/07 04:23:52;;;;;;;32.22;18.75;;;128.90;2252.80;;;;;;5028408;28;20543;-55
2022/12/07 04:26:18;;;;;;;33.05;18.60;;;153.60;2252.80;;;;;;5025857;28;20070;-55
2022/12/07 04:28:43;;;;;;;31.17;18.83;;;153.70;2252.80;;;;;;5025424;28;20029;-60
2022/12/07 04:31:09;;;;;;;33.67;18.95;;;153.70;2252.80;;;;;;5026163;28;20021;-55
2022/12/07 04:33:36;;;;;;;38.42;21.58;;;153.70;2252.80;;;;;;5025404;28;20615;-56
2022/12/07 04:36:02;;;;;;;34.85;20.75;;;154.40;2252.80;;;;;;5026300;28;20024;-57
2022/12/07 04:38:28;;;;;;;35.55;20.15;;;153.60;2252.80;;;;;;5025449;28;20028;-56
2022/12/07 04:40:53;;;;;;;36.95;20.30;;;128.90;2252.80;;;;;;5025744;28;20021;-56
2022/12/07 04:43:19;;;;;;;38.00;21.75;;;128.90;2252.80;;;;;;5025933;28;20707;-56
2022/12/07 04:45:48;;;;;;;34.78;20.52;;;153.60;2252.80;;;;;;5025769;28;20020;-55
2022/12/07 04:48:14;;;;;;;36.22;20.13;;;153.60;2252.80;;;;;;5024506;28;20040;-56
2022/12/07 04:50:40;;;;;;;35.95;20.88;;;153.70;2252.80;;;;;;5024930;28;20099;-54
2022/12/07 04:53:06;;;;;;;35.00;20.05;;;153.90;2252.80;;;;;;5025120;28;20112;-57
2022/12/07 04:55:31;;;;;;;35.50;19.38;;;153.90;2252.80;;;;;;5025135;28;20606;-56
2022/12/07 04:57:57;;;;;;;34.47;19.88;;;153.80;2252.80;;;;;;5025177;28;20163;-56
2022/12/07 05:00:23;;;;;;;38.22;22.65;;;153.80;2252.80;;;;;;5025218;28;20078;-56
2022/12/07 05:02:48;;;;;;;37.60;21.52;;;153.70;2252.80;;;;;;5024526;28;20711;-55
2022/12/07 05:05:14;;;;;;;39.22;22.40;;;153.70;2252.80;;;;;;5025163;28;20052;-57
2022/12/07 05:07:40;;;;;;;38.30;21.27;;;153.60;2252.80;;;;;;5024638;28;20037;-56
2022/12/07 05:10:06;;;;;;;36.92;20.65;;;128.90;2252.80;;;;;;5024765;28;20732;-56
2022/12/07 05:12:32;;;;;;;40.40;21.98;;;153.70;2252.80;;;;;;5023743;28;20041;-56
2022/12/07 05:14:57;;;;;;;35.65;20.80;;;153.70;2252.80;;;;;;5024442;28;20104;-56
2022/12/07 05:17:23;;;;;;;37.88;22.10;;;153.80;2252.80;;;;;;5024698;28;20040;-56
2022/12/07 05:19:49;;;;;;;37.80;21.27;;;153.90;2252.80;;;;;;5024492;28;20111;-56
2022/12/07 05:22:15;;;;;;;41.72;23.15;;;153.90;2252.80;;;;;;5024408;28;20032;-55
2022/12/07 05:24:40;;;;;;;51.03;29.25;;;153.90;2252.80;;;;;;5024048;28;20017;-56
2022/12/07 05:27:06;;;;;;;43.53;25.30;;;153.80;2252.80;;;;;;5025087;28;20098;-58
2022/12/07 05:29:32;;;;;;;46.65;25.15;;;154.00;2252.80;;;;;;5024615;28;20017;-55
2022/12/07 05:31:57;;;;;;;44.88;25.73;;;154.50;2252.80;;;;;;5024577;28;20664;-55
2022/12/07 05:34:23;;;;;;;38.80;23.27;;;153.60;2252.80;;;;;;5024701;28;20104;-56
2022/12/07 05:36:50;;;;;;;41.97;23.60;;;128.90;2252.80;;;;;;5024815;28;20704;-54
2022/12/07 05:39:16;;;;;;;57.58;29.67;;;153.60;2252.80;;;;;;5024477;28;20128;-55
2022/12/07 05:44:26;;;;;;;58.17;29.80;;;153.60;2252.80;;;;;;5023957;28;20079;-56
2022/12/07 05:46:51;;;;;;;59.97;27.25;;;154.10;2252.80;;;;;;5024161;28;20037;-56
2022/12/07 05:49:17;;;;;;;68.57;32.42;;;128.80;2252.80;;;;;;5017950;28;20556;-55
2022/12/07 05:51:43;;;;;;;62.80;29.40;;;153.80;2252.80;;;;;;5018347;28;20070;-56
2022/12/07 05:54:09;;;;;;;82.28;36.35;;;128.80;2252.80;;;;;;5010864;28;20575;-57
2022/12/07 05:56:34;;;;;;;71.55;32.13;;;128.70;2252.80;;;;;;5005917;28;20059;-55
2022/12/07 06:01:44;;;;;;;60.55;28.83;;;153.70;2252.80;;;;;;5004945;28;20739;-56
2022/12/07 06:04:10;;;;;;;47.72;25.00;;;128.80;2252.80;;;;;;5008253;28;20029;-56
2022/12/07 06:06:36;;;;;;;41.03;24.50;;;128.80;2252.80;;;;;;5007840;28;20030;-56
2022/12/07 06:09:03;;;;;;;39.33;22.23;;;128.70;2252.80;;;;;;5012026;28;20030;-54
2022/12/07 06:14:13;;;;;;;50.15;26.40;;;128.80;2252.80;;;;;;5013493;28;20040;-56
2022/12/07 06:16:38;;;;;;;48.83;26.50;;;128.80;2252.80;;;;;;5013037;28;20543;-56
2022/12/07 06:19:04;;;;;;;51.75;28.00;;;128.80;2252.80;;;;;;5023793;28;20250;-57
2022/12/07 06:21:30;;;;;;;50.88;27.08;;;128.70;2252.80;;;;;;5023039;28;20028;-55
2022/12/07 06:23:55;;;;;;;51.58;28.10;;;128.50;2252.80;;;;;;5023799;28;20450;-56
2022/12/07 06:26:22;;;;;;;51.78;28.40;;;128.50;2252.80;;;;;;5023479;28;20025;-56
2022/12/07 06:28:47;;;;;;;61.65;30.83;;;128.50;2252.80;;;;;;5023403;28;20040;-56
2022/12/07 06:31:13;;;;;;;52.78;27.75;;;128.50;2252.80;;;;;;5023261;28;20026;-56
2022/12/07 06:33:39;;;;;;;51.63;28.33;;;128.50;2252.80;;;;;;5023464;28;20657;-56
2022/12/07 06:36:05;;;;;;;51.10;28.60;;;128.40;2252.80;;;;;;5022365;28;20627;-57
2022/12/07 06:38:30;;;;;;;50.20;27.58;;;128.30;2252.80;;;;;;5022667;28;20043;-52
2022/12/07 06:40:56;;;;;;;50.47;27.88;;;128.30;2252.80;;;;;;5021695;28;20033;-56
2022/12/07 06:43:22;;;;;;;54.53;28.77;;;128.40;2252.80;;;;;;5023419;28;20312;-56
2022/12/07 06:45:47;;;;;;;53.78;29.17;;;128.40;2252.80;;;;;;5022382;28;20076;-54
2022/12/07 06:48:14;;;;;;;57.70;28.40;;;128.40;2252.80;;;;;;5022711;28;20072;-54
2022/12/07 06:50:39;;;;;;;55.83;30.05;;;128.50;2252.80;;;;;;5021465;28;20032;-59
2022/12/07 06:53:05;;;;;;;57.17;28.98;;;128.50;2252.80;;;;;;5021474;28;20029;-54
2022/12/07 06:55:31;;;;;;;55.88;29.75;;;128.50;2252.80;;;;;;5010869;28;20033;-55
2022/12/07 06:57:57;;;;;;;59.60;30.45;;;128.60;2252.80;;;;;;5010647;28;20033;-56
2022/12/07 07:00:23;;;;;;;63.85;31.38;;;128.70;2252.80;;;;;;5009048;28;20035;-54
2022/12/07 07:02:49;;;;;;;64.05;32.95;;;128.80;2252.80;;;;;;5032149;28;20614;-54
2022/12/07 07:05:16;;;;;;;69.93;32.85;;;153.60;2252.80;;;;;;5021512;28;20655;-55
2022/12/07 07:07:42;;;;;;;66.68;33.75;;;153.70;2252.80;;;;;;5008243;28;20163;-54
2022/12/07 07:10:08;;;;;;;71.38;34.70;;;153.70;2252.80;;;;;;5021371;28;20103;-54
2022/12/07 07:12:33;;;;;;;63.38;31.50;;;153.70;2252.80;;;;;;5023219;28;20024;-55
2022/12/07 07:14:59;;;;;;;66.32;33.30;;;153.70;2252.80;;;;;;5019154;28;20028;-57
2022/12/07 07:17:25;;;;;;;88.95;39.47;;;153.70;2252.80;;;;;;5023325;28;20090;-55
2022/12/07 07:19:50;;;;;;;59.85;30.92;;;153.80;2252.80;;;;;;5023339;28;20013;-55
2022/12/07 07:22:16;;;;;;;54.33;28.70;;;154.00;2252.80;;;;;;5023978;28;20297;-54
2022/12/07 07:24:42;;;;;;;57.20;30.38;;;154.10;2252.80;;;;;;5023022;28;20025;-56
2022/12/07 07:27:07;;;;;;;53.97;28.67;;;154.20;2252.80;;;;;;5026208;28;20112;-54
2022/12/07 07:29:33;;;;;;;82.05;44.65;;;153.90;2252.80;;;;;;5027566;28;20675;-55
2022/12/07 07:32:00;;;;;;;84.53;40.88;;;154.30;2252.80;;;;;;5026016;28;20108;-53
2022/12/07 07:34:25;;;;;;;54.92;29.95;;;154.30;2252.80;;;;;;5026337;28;20036;-54
2022/12/07 07:36:51;;;;;;;48.60;27.73;;;154.40;2252.80;;;;;;5027205;28;20025;-53
2022/12/07 07:39:16;;;;;;;53.20;26.98;;;154.50;2252.80;;;;;;5027489;28;20081;-56
2022/12/07 07:41:42;;;;;;;45.67;24.02;;;154.50;2252.80;;;;;;5026519;28;20110;-55
2022/12/07 07:44:09;;;;;;;45.08;24.75;;;179.50;2252.80;;;;;;5026834;28;20025;-56
2022/12/07 07:46:34;;;;;;;81.25;38.05;;;179.50;2252.80;;;;;;5026418;28;20632;-56
2022/12/07 07:49:00;;;;;;;85.70;38.13;;;179.70;2252.80;;;;;;5026447;28;20048;-55
2022/12/07 07:51:26;;;;;;;103.32;44.33;;;179.70;2252.80;;;;;;5026592;28;20040;-55
2022/12/07 07:53:51;;;;;;;86.03;41.38;;;180.00;2252.80;;;;;;5037236;28;20033;-55
2022/12/07 07:56:17;;;;;;;52.53;28.73;;;180.00;2252.80;;;;;;5006859;28;20025;-56
2022/12/07 07:58:43;;;;;;;52.28;30.02;;;180.10;2252.80;;;;;;5008449;28;20051;-54
2022/12/07 08:01:09;;;;;;;115.97;51.90;;;204.90;2252.80;;;;;;5020212;28;20047;-55
2022/12/07 08:03:34;;;;;;;89.80;41.45;;;180.10;2252.80;;;;;;5014781;28;20704;-55
2022/12/07 08:06:02;;;;;;;84.72;42.03;;;204.90;2252.80;;;;;;5024251;28;20052;-54
2022/12/07 08:08:28;;;;;;;61.13;34.88;;;205.00;2252.80;;;;;;5024132;28;20242;-55
2022/12/07 08:10:53;;;;;;;56.40;32.40;;;205.20;2252.80;;;;;;5024603;28;20024;-55
2022/12/07 08:13:19;;;;;;;60.35;35.40;;;205.10;2252.80;;;;;;5024109;28;20504;-54
2022/12/07 08:15:47;;;;;;;61.92;36.47;;;205.10;2252.80;;;;;;5015941;28;20025;-56
2022/12/07 08:18:14;;;;;;;64.85;37.60;;;205.10;2252.80;;;;;;5022745;28;20033;-53
2022/12/07 08:20:41;;;;;;;65.25;37.70;;;205.10;2252.80;;;;;;5024726;28;20578;-53
2022/12/07 08:23:08;;;;;;;57.17;34.92;;;205.00;2252.80;;;;;;5023897;28;20086;-54
2022/12/07 08:25:34;;;;;;;101.55;47.15;;;204.90;2252.80;;;;;;5024418;28;20190;-56
2022/12/07 08:28:01;;;;;;;122.15;47.83;;;205.00;2252.80;;;;;;5024706;28;20037;-55
2022/12/07 08:30:28;;;;;;;108.75;43.55;;;205.00;2252.80;;;;;;5024335;28;20020;-56
2022/12/07 08:32:54;;;;;;;53.97;31.73;;;204.90;2252.80;;;;;;5024142;28;20122;-54
2022/12/07 08:35:19;;;;;;;45.13;27.77;;;205.10;2252.80;;;;;;5024097;28;20626;-55
2022/12/07 08:37:45;;;;;;;49.22;29.45;;;205.20;2252.80;;;;;;5023570;28;20033;-54
2022/12/07 08:40:15;;;;;;;48.40;28.30;;;205.20;2252.80;;;;;;5023369;28;20024;-53
2022/12/07 08:42:44;;;;;;;47.08;26.25;;;205.30;2252.80;;;;;;5281031;22;20062;-54
2022/12/07 08:45:12;;;;;;;65.28;35.25;;;205.20;2252.80;;;;;;4990327;28;20101;-55
2022/12/07 08:47:42;;;;;;;80.50;40.40;;;205.30;2252.80;;;;;;4989769;28;20038;-55
2022/12/07 08:50:10;;;;;;;97.97;48.10;;;205.20;2252.80;;;;;;4990815;28;20046;-54
2022/12/07 08:52:37;;;;;;;132.68;59.67;;;205.10;2252.80;;;;;;5002060;28;20113;-53
2022/12/07 08:55:04;;;;;;;78.00;39.83;;;205.10;2252.80;;;;;;5013135;28;20109;-55
2022/12/07 08:57:32;;;;;;;76.32;41.22;;;205.20;2252.80;;;;;;5014117;28;20080;-55
2022/12/07 08:59:58;;;;;;;53.53;30.75;;;205.20;2252.80;;;;;;5010731;28;20034;-55
2022/12/07 09:02:24;;;;;;;50.28;28.27;;;205.50;2252.80;;;;;;4998796;28;20030;-55
2022/12/07 09:04:49;;;;;;;69.05;37.22;;;205.50;2252.80;;;;;;4993783;28;20113;-54
2022/12/07 09:07:16;;;;;;;83.80;43.25;;;205.60;2252.80;;;;;;4994173;28;20038;-55
2022/12/07 09:09:41;;;;;;;81.45;38.38;;;205.40;2252.80;;;;;;4994045;28;20090;-55
2022/12/07 09:12:07;;;;;;;105.70;41.75;;;205.40;2252.80;;;;;;4994310;28;20458;-54
2022/12/07 09:14:33;;;;;;;125.30;41.00;;;205.50;2252.80;;;;;;5009207;28;20073;-55
2022/12/07 09:17:10;;;;;;;109.45;41.08;;;205.60;2252.80;;;;;;4993780;28;20057;-54
2022/12/07 09:19:37;;;;;;;108.28;42.85;;;205.50;2252.80;;;;;;4994107;28;20392;-55
2022/12/07 09:22:04;;;;;;;131.50;51.72;;;205.50;2252.80;;;;;;4993715;28;20049;-55
2022/12/07 09:24:31;;;;;;;103.15;42.65;;;205.30;2252.80;;;;;;4994034;28;20483;-54
2022/12/07 09:26:57;;;;;;;161.25;57.17;;;205.10;2252.80;;;;;;4993981;28;20034;-54
2022/12/07 09:29:24;;;;;;;136.68;49.40;;;204.90;2252.80;;;;;;4993644;28;20138;-54
2022/12/07 09:31:49;;;;;;;126.28;45.25;;;180.10;2252.80;;;;;;4992895;28;20770;-54
2022/12/07 09:34:15;;;;;;;140.20;48.65;;;180.10;2252.80;;;;;;4993261;28;20026;-55
2022/12/07 09:36:42;;;;;;;133.07;45.20;;;180.10;2252.80;;;;;;4993059;28;20037;-55
2022/12/07 09:39:08;;;;;;;138.98;44.92;;;204.80;2252.80;;;;;;4992301;28;20483;-55
2022/12/07 09:41:39;;;;;;;155.60;48.13;;;180.10;2252.80;;;;;;4993936;28;20037;-55
2022/12/07 09:44:09;;;;;;;141.73;45.03;;;180.00;2252.80;;;;;;4992998;28;20455;-56
2022/12/07 09:46:38;;;;;;;170.13;58.53;;;180.00;2252.80;;;;;;4992501;28;20042;-55
2022/12/07 09:49:08;;;;;;;148.45;55.38;;;179.90;2252.80;;;;;;4993282;28;20034;-55
2022/12/07 09:51:34;;;;;;;126.05;46.63;;;179.80;2252.80;;;;;;4993573;28;20061;-55
2022/12/07 09:54:01;;;;;;;145.80;49.55;;;179.80;2252.80;;;;;;4993427;28;20029;-55
2022/12/07 09:56:30;;;;;;;166.30;56.33;;;179.80;2252.80;;;;;;4993548;28;20039;-54
2022/12/07 09:59:01;;;;;;;151.15;51.55;;;179.80;2252.80;;;;;;4992790;28;20072;-56
2022/12/07 10:01:32;;;;;;;162.82;55.38;;;179.60;2252.80;;;;;;4992693;28;20045;-56
2022/12/07 10:04:12;;;;;;;142.85;52.80;;;179.60;2252.80;;;;;;4993345;28;20026;-55
2022/12/07 10:06:38;;;;;;;140.52;48.25;;;179.60;2252.80;;;;;;4991981;28;20046;-55
2022/12/07 10:09:16;;;;;;;146.45;47.30;;;179.70;2252.80;;;;;;4993266;28;20054;-55
2022/12/07 10:12:02;;;;;;;101.63;41.92;;;179.90;2252.80;;;;;;4993694;28;20030;-55
2022/12/07 10:14:30;;;;;;;82.25;36.25;;;180.00;2252.80;;;;;;4993865;28;20089;-54
2022/12/07 10:16:56;;;;;;;80.38;39.35;;;180.10;2252.80;;;;;;4992493;28;20053;-54
2022/12/07 10:19:24;;;;;;;69.65;36.67;;;204.90;2252.80;;;;;;4993795;28;20039;-56
2022/12/07 10:22:03;;;;;;;108.95;49.97;;;204.90;2252.80;;;;;;4993169;28;20054;-54
2022/12/07 10:24:29;;;;;;;102.75;45.90;;;205.10;2252.80;;;;;;4993449;28;20387;-55
2022/12/07 10:26:56;;;;;;;78.05;36.80;;;205.20;2252.80;;;;;;4992557;28;20053;-55
2022/12/07 10:29:24;;;;;;;58.38;33.28;;;205.30;2252.80;;;;;;4992737;28;20089;-56
2022/12/07 10:32:16;;;;;;;61.90;34.83;;;205.50;2252.80;;;;;;4992329;28;20065;-55
2022/12/07 10:34:42;;;;;;;75.65;33.15;;;205.70;2252.80;;;;;;4991360;28;20117;-55
2022/12/07 10:37:14;;;;;;;70.05;32.95;;;205.60;2252.80;;;;;;4996185;28;20034;-55
2022/12/07 10:39:48;;;;;;;57.10;32.70;;;230.60;2252.80;;;;;;4991019;28;20070;-55
2022/12/07 10:42:19;;;;;;;50.17;27.70;;;231.10;2252.80;;;;;;4990408;28;20034;-56
2022/12/07 10:44:46;;;;;;;43.60;25.00;;;256.10;2252.80;;;;;;4997209;28;20050;-55
2022/12/07 10:47:38;;;;;;;38.28;22.77;;;282.20;2278.40;;;;;;4993883;28;20526;-55
2022/12/07 10:50:18;;;;;;;43.05;25.25;;;307.80;2304.00;;;;;;4931778;29;20405;-55
2022/12/07 10:53:08;;;;;;;67.45;32.90;;;307.80;2304.00;;;;;;4944609;29;20575;-55
2022/12/07 10:56:02;;;;;;;67.32;35.08;;;307.60;2304.00;;;;;;4935776;29;20163;-55
2022/12/07 10:58:55;;;;;;;78.70;37.80;;;307.30;2304.00;;;;;;4945877;29;20067;-56
2022/12/07 11:01:39;;;;;;;53.63;31.15;;;307.30;2304.00;;;;;;4935765;28;20102;-55
2022/12/07 11:04:35;;;;;;;52.55;28.85;;;307.70;2304.00;;;;;;4942089;29;20111;-56
2022/12/07 11:07:25;;;;;;;84.25;44.20;;;307.70;2304.00;;;;;;4937737;29;20123;-55
2022/12/07 11:10:02;;;;;;;79.72;41.08;;;307.50;2304.00;;;;;;4956440;29;20039;-55
2022/12/07 11:12:40;;;;;;;63.72;34.33;;;307.40;2304.00;;;;;;4937385;29;20044;-55
2022/12/07 11:15:18;;;;;;;72.45;38.13;;;307.20;2304.00;;;;;;4937315;29;20047;-55
2022/12/07 11:17:52;;;;;;;76.25;36.72;;;307.20;2304.00;;;;;;4937558;29;20465;-55
2022/12/07 11:20:38;;;;;;;62.75;34.20;;;307.20;2304.00;;;;;;4936649;29;20040;-55
2022/12/07 11:23:34;;;;;;;40.60;25.40;;;282.50;2278.40;;;;;;4937304;29;20028;-55
2022/12/07 11:26:18;;;;;;;35.75;23.77;;;307.30;2304.00;;;;;;4945330;28;20047;-54
2022/12/07 11:29:02;;;;;;;34.15;23.25;;;307.30;2304.00;;;;;;4997190;28;20035;-55
2022/12/07 11:32:06;;;;;;;37.42;23.92;;;282.50;2278.40;;;;;;4995644;28;20427;-55
2022/12/07 11:34:50;;;;;;;;;;;282.20;2278.40;;;;;;4996507;28;20412;-55
2022/12/07 11:37:25;;;;;;;34.55;21.73;;;282.00;2278.40;;;;;;4996907;28;19906;-54
2022/12/07 11:39:55;;;;;;;43.08;25.52;;;281.70;2278.40;;;;;;4997290;28;20081;-53
2022/12/07 11:42:33;;;;;;;43.45;27.27;;;281.60;2278.40;;;;;;4997086;28;20485;-53
2022/12/07 11:45:02;;;;;;;46.40;26.27;;;281.70;2278.40;;;;;;4996857;28;20050;-54
2022/12/07 11:47:47;;;;;;;51.95;28.92;;;281.90;2278.40;;;;;;4998781;28;20042;-54
2022/12/07 11:50:34;;;;;;;60.10;31.13;;;281.90;2278.40;;;;;;4977303;28;20019;-55
2022/12/07 11:53:08;;;;;;;41.10;23.33;;;281.60;2278.40;;;;;;4989245;28;20096;-53
2022/12/07 11:56:08;;;;;;;30.23;20.27;;;256.80;2252.80;;;;;;4986252;28;20535;-54
2022/12/07 11:58:33;;;;;;;33.85;22.38;;;281.60;2278.40;;;;;;5003020;28;20034;-55
2022/12/07 12:01:25;;;;;;;34.88;23.10;;;281.60;2278.40;;;;;;4996795;28;20023;-55
2022/12/07 12:03:58;;;;;;;35.47;22.20;;;281.60;2278.40;;;;;;4994135;28;20042;-55
2022/12/07 12:06:23;;;;;;;30.35;21.42;;;256.70;2252.80;;;;;;4994117;28;20046;-55
2022/12/07 12:08:52;;;;;;;34.60;23.10;;;256.60;2252.80;;;;;;4989830;28;20043;-55
2022/12/07 12:11:50;;;;;;;33.63;21.88;;;256.50;2252.80;;;;;;4994077;28;20041;-54
2022/12/07 12:14:19;;;;;;;31.80;20.63;;;256.40;2252.80;;;;;;4990551;28;20035;-53
2022/12/07 12:17:12;;;;;;;35.05;22.80;;;256.50;2252.80;;;;;;4993818;28;20026;-55
2022/12/07 12:19:59;;;;;;;34.22;21.65;;;256.50;2252.80;;;;;;4974858;28;20174;-55
2022/12/07 12:22:58;;;;;;;32.75;22.05;;;256.50;2252.80;;;;;;4988152;28;20038;-55
2022/12/07 12:25:35;;;;;;;36.72;23.40;;;256.40;2252.80;;;;;;4981472;28;20043;-54
2022/12/07 12:28:02;;;;;;;39.60;24.25;;;256.40;2252.80;;;;;;4973770;28;20415;-55
2022/12/07 12:30:38;;;;;;;40.17;25.40;;;256.40;2252.80;;;;;;4977832;28;20503;-55
2022/12/07 12:33:26;;;;;;;38.65;24.98;;;256.50;2252.80;;;;;;4974368;28;20558;-55
2022/12/07 12:36:15;;;;;;;42.95;26.50;;;256.50;2252.80;;;;;;4977499;28;20492;-54